Juergen K — PBKV — position and weather

sailwx.info

Track history (hours):
 
Tides and Currents Weather Stations Pressure Air Temp Water Temp Dewpoint Dewpoint Depression Visibility Wind Speed Wind Dir Waves Ship Positions

Juergen K

Last reported at 2017-May-29 15:10 UTC. Time now 2017-May-30 11:05 UTC.
Position N 39°52' E 008°33'.

Length 89 m; draft 3.6 m.

Type: Cargo ship. MMSI: 244329000.

Date/timePositionNaut miles runAvg speedWind from/ knotsBaromVisibWave heightAir tempDewpointWater temp
2017-May-29 15:10N 39°52' E 008°33'1 9.1
2017-May-29 15:00N 39°53' E 008°31'2 2.4
2017-May-29 13:59N 39°51' E 008°29'  
2017-May-25 14:57N 43°16' E 008°21'7 6.9
2017-May-25 14:00N 43°23' E 008°22'3 6.9
2017-May-25 13:30N 43°26' E 008°23'3 6.8
2017-May-25 13:00N 43°30' E 008°24'5 9.0
2017-May-25 12:30N 43°34' E 008°24'510.3
2017-May-25 12:00N 43°39' E 008°25'510.2
2017-May-25 11:30N 43°44' E 008°26'510.4
2017-May-25 11:00N 43°50' E 008°27'510.5
2017-May-25 10:30N 43°55' E 008°28'510.2
2017-May-25 10:00N 43°60' E 008°29'510.2
2017-May-25 09:30N 44°05' E 008°30'510.3
2017-May-25 08:59N 44°10' E 008°31'510.7
2017-May-25 08:30N 44°15' E 008°32'4 7.7
2017-May-25 08:00N 44°19' E 008°30'0 0.1
2017-May-25 07:27N 44°19' E 008°30'0 0.0
2017-May-25 06:57N 44°19' E 008°30'0 0.0
2017-May-25 06:27N 44°19' E 008°30'0 0.0
2017-May-25 05:57N 44°19' E 008°30'0 0.0
2017-May-25 05:27N 44°19' E 008°30'0 0.0
2017-May-25 04:57N 44°19' E 008°30'0 0.0
2017-May-25 04:27N 44°19' E 008°30'0 0.0
2017-May-25 03:57N 44°19' E 008°30'0 0.0
2017-May-25 03:30N 44°19' E 008°30'0 0.0
2017-May-25 03:00N 44°19' E 008°30'0 0.0
2017-May-25 02:27N 44°19' E 008°30'0 0.0
2017-May-25 02:00N 44°19' E 008°30'0 0.0
2017-May-25 01:27N 44°19' E 008°30'0 0.0
2017-May-25 00:57N 44°19' E 008°30'0 0.0
2017-May-25 00:27N 44°19' E 008°30'0 0.0
2017-May-24 23:57N 44°19' E 008°30'0 0.0
2017-May-24 23:27N 44°19' E 008°30'0 0.0
2017-May-24 22:57N 44°19' E 008°30'0 0.0
2017-May-24 22:27N 44°19' E 008°30'0 0.0
2017-May-24 21:57N 44°19' E 008°30'0 0.0
2017-May-24 21:27N 44°19' E 008°30'0 0.0
2017-May-24 20:57N 44°19' E 008°30'0 0.0
2017-May-24 20:21N 44°19' E 008°30'0 0.0
2017-May-24 19:57N 44°19' E 008°30'0 0.0
2017-May-24 19:24N 44°19' E 008°30'0 0.0
2017-May-24 18:57N 44°19' E 008°30'0 0.0
2017-May-24 18:27N 44°19' E 008°30'0 0.0
2017-May-24 17:57N 44°19' E 008°30'0 0.0
2017-May-24 17:27N 44°19' E 008°30'0 0.0
2017-May-24 16:57N 44°19' E 008°30'0 0.0
2017-May-24 16:27N 44°19' E 008°30'0 0.0
2017-May-24 15:57N 44°19' E 008°30'0 0.0
2017-May-24 15:30N 44°19' E 008°30'0 0.0
2017-May-24 14:57N 44°19' E 008°30'0 0.0
2017-May-24 14:27N 44°19' E 008°30'0 0.0
2017-May-24 13:27N 44°19' E 008°30'0 0.0
2017-May-24 12:57N 44°19' E 008°30'0 0.0
2017-May-24 12:30N 44°19' E 008°30'0 0.0
2017-May-24 11:57N 44°19' E 008°30'0 0.0
2017-May-24 11:27N 44°19' E 008°30'0 0.0
2017-May-24 10:57N 44°19' E 008°30'0 0.0
2017-May-24 10:27N 44°19' E 008°30'0 0.0
2017-May-24 09:57N 44°19' E 008°30'0 0.0
2017-May-24 09:30N 44°19' E 008°30'0 0.0
2017-May-24 08:57N 44°19' E 008°30'0 0.0
2017-May-24 08:27N 44°19' E 008°30'0 0.0
2017-May-24 08:00N 44°19' E 008°30'1 2.3
2017-May-24 07:30N 44°19' E 008°31'3 6.7
2017-May-24 07:00N 44°16' E 008°34'5 9.8
2017-May-24 06:30N 44°12' E 008°38'510.6
2017-May-24 06:00N 44°07' E 008°42'510.2
2017-May-24 05:30N 44°03' E 008°45'510.3
2017-May-24 05:00N 43°59' E 008°49'510.5
2017-May-24 04:30N 43°54' E 008°53'510.5
2017-May-24 04:00N 43°50' E 008°57'510.5
2017-May-24 03:30N 43°45' E 009°01'510.3
2017-May-24 03:00N 43°41' E 009°05'510.5
2017-May-24 02:30N 43°37' E 009°09'510.6
2017-May-24 02:00N 43°32' E 009°13'510.7
2017-May-24 01:30N 43°28' E 009°17'510.7
2017-May-24 01:00N 43°23' E 009°21'510.4
2017-May-24 00:30N 43°19' E 009°25'510.2
2017-May-24 00:00N 43°15' E 009°29'510.0
2017-May-23 23:30N 43°10' E 009°32'510.2
2017-May-23 23:00N 43°06' E 009°36'510.2
2017-May-23 22:30N 43°01' E 009°39'710.3
2017-May-23 21:47N 42°54' E 009°42'510.5
2017-May-23 21:17N 42°49' E 009°44'310.8
2017-May-23 20:58N 42°46' E 009°46'2110.3
2017-May-23 18:56N 42°26' E 009°55'410.1
2017-May-23 18:30N 42°22' E 009°57'9 9.9
2017-May-23 17:37N 42°15' E 010°05'110.1
2017-May-23 17:30N 42°15' E 010°06'610.2
2017-May-23 16:56N 42°11' E 010°12'10910.2
2017-May-23 06:17N 41°09' E 012°11'410.3
2017-May-23 05:53N 41°06' E 012°16'510.1
2017-May-23 05:23N 41°03' E 012°21'410.3
2017-May-23 05:00N 41°01' E 012°25'710.3
2017-May-23 04:18N 40°57' E 012°33'1810.3
2017-May-23 02:32N 40°47' E 012°54'210.4
2017-May-23 02:23N 40°47' E 012°56'510.3
2017-May-23 01:52N 40°45' E 013°03'1010.2
2017-May-23 00:53N 40°43' E 013°15'410.2
2017-May-23 00:29N 40°42' E 013°21'610.1
2017-May-22 23:56N 40°40' E 013°28'5 9.9
2017-May-22 23:26N 40°38' E 013°34'5 9.9
2017-May-22 22:57N 40°37' E 013°40'610.0
2017-May-22 22:23N 40°35' E 013°47'410.2
2017-May-22 21:57N 40°34' E 013°53'6 9.9
2017-May-22 21:19N 40°32' E 014°00'410.0
2017-May-22 20:57N 40°32' E 014°05'97 3.4
2017-May-21 16:50N 39°60' E 012°05'12 8.9
2017-May-21 15:28N 40°01' E 011°50'4 8.8
2017-May-21 14:59N 40°01' E 011°44'9 8.7
2017-May-21 13:57N 40°02' E 011°32'4 8.6
2017-May-21 13:29N 40°02' E 011°27'4 8.6
2017-May-21 12:59N 40°02' E 011°22'4 8.6
2017-May-21 12:30N 40°03' E 011°16'5 8.5
2017-May-21 11:58N 40°03' E 011°10'4 8.5
2017-May-21 11:27N 40°03' E 011°04'25 9.0
2017-May-21 08:42N 40°04' E 010°32'2 9.9
2017-May-21 08:30N 40°05' E 010°30'610.1
2017-May-21 07:57N 40°05' E 010°22'510.0
2017-May-21 07:30N 40°05' E 010°16'5 9.9
2017-May-21 07:00N 40°05' E 010°10'5 9.7
2017-May-21 06:29N 40°05' E 010°03'4 8.5
2017-May-21 06:00N 40°05' E 009°58'6 9.3
2017-May-21 05:21N 39°59' E 009°57'6 9.7
2017-May-21 04:43N 39°53' E 009°56'8 9.6
2017-May-21 03:55N 39°45' E 009°55'4 9.6
2017-May-21 03:30N 39°41' E 009°54'5 9.7
2017-May-21 03:00N 39°36' E 009°53'5 9.6
2017-May-21 02:30N 39°31' E 009°53'5 9.4
2017-May-21 01:58N 39°26' E 009°52'4 9.1
2017-May-21 01:29N 39°22' E 009°50'4 9.0
2017-May-21 00:59N 39°18' E 009°49'4 8.4
2017-May-21 00:30N 39°14' E 009°47'21 8.1
2017-May-20 21:57N 38°59' E 009°29'4 8.3
2017-May-20 21:30N 38°57' E 009°25'5 8.2
2017-May-20 20:53N 38°55' E 009°19'4 8.5
2017-May-20 20:25N 38°53' E 009°14'4 8.7
2017-May-20 19:55N 38°52' E 009°09'10 8.9
2017-May-20 18:47N 38°49' E 008°57'3 8.9
2017-May-20 18:29N 38°48' E 008°53'5 9.2
2017-May-20 17:58N 38°48' E 008°47'4 9.4
2017-May-20 17:30N 38°48' E 008°42'5 9.5
2017-May-20 16:59N 38°48' E 008°36'5 9.3
2017-May-20 16:29N 38°48' E 008°30'4 9.2
2017-May-20 16:00N 38°49' E 008°24'5 9.4
2017-May-20 15:29N 38°49' E 008°18'5 9.4
2017-May-20 15:00N 38°49' E 008°12'5 9.2
2017-May-20 14:30N 38°50' E 008°06'9 9.2
2017-May-20 13:31N 38°50' E 007°54'5 9.0
2017-May-20 13:00N 38°50' E 007°48'5 9.0
2017-May-20 12:30N 38°50' E 007°43'4 8.7
2017-May-20 11:59N 38°50' E 007°37'4 8.6
2017-May-20 11:30N 38°51' E 007°31'4 8.7
2017-May-20 11:00N 38°51' E 007°26'184 9.5
2017-May-19 15:30N 39°02' E 003°29'  
Track history (hours):
 
Tides and Currents Weather Stations Pressure Air Temp Water Temp Dewpoint Dewpoint Depression Visibility Wind Speed Wind Dir Waves Ship Positions

Juergen K

Last reported at 2017-May-29 15:10 UTC. Time now 2017-May-30 11:05 UTC.
Position N 39°52' E 008°33'.

Length 89 m; draft 3.6 m.

Type: Cargo ship. MMSI: 244329000.

Date/timePositionNaut miles runAvg speedWind from/ knotsBaromVisibWave heightAir tempDewpointWater temp
2017-May-29 15:10N 39°52' E 008°33'1 9.1
2017-May-29 15:00N 39°53' E 008°31'2 2.4
2017-May-29 13:59N 39°51' E 008°29'  
2017-May-25 14:57N 43°16' E 008°21'7 6.9
2017-May-25 14:00N 43°23' E 008°22'3 6.9
2017-May-25 13:30N 43°26' E 008°23'3 6.8
2017-May-25 13:00N 43°30' E 008°24'5 9.0
2017-May-25 12:30N 43°34' E 008°24'510.3
2017-May-25 12:00N 43°39' E 008°25'510.2
2017-May-25 11:30N 43°44' E 008°26'510.4
2017-May-25 11:00N 43°50' E 008°27'510.5
2017-May-25 10:30N 43°55' E 008°28'510.2
2017-May-25 10:00N 43°60' E 008°29'510.2
2017-May-25 09:30N 44°05' E 008°30'510.3
2017-May-25 08:59N 44°10' E 008°31'510.7
2017-May-25 08:30N 44°15' E 008°32'4 7.7
2017-May-25 08:00N 44°19' E 008°30'0 0.1
2017-May-25 07:27N 44°19' E 008°30'0 0.0
2017-May-25 06:57N 44°19' E 008°30'0 0.0
2017-May-25 06:27N 44°19' E 008°30'0 0.0
2017-May-25 05:57N 44°19' E 008°30'0 0.0
2017-May-25 05:27N 44°19' E 008°30'0 0.0
2017-May-25 04:57N 44°19' E 008°30'0 0.0
2017-May-25 04:27N 44°19' E 008°30'0 0.0
2017-May-25 03:57N 44°19' E 008°30'0 0.0
2017-May-25 03:30N 44°19' E 008°30'0 0.0
2017-May-25 03:00N 44°19' E 008°30'0 0.0
2017-May-25 02:27N 44°19' E 008°30'0 0.0
2017-May-25 02:00N 44°19' E 008°30'0 0.0
2017-May-25 01:27N 44°19' E 008°30'0 0.0
2017-May-25 00:57N 44°19' E 008°30'0 0.0
2017-May-25 00:27N 44°19' E 008°30'0 0.0
2017-May-24 23:57N 44°19' E 008°30'0 0.0
2017-May-24 23:27N 44°19' E 008°30'0 0.0
2017-May-24 22:57N 44°19' E 008°30'0 0.0
2017-May-24 22:27N 44°19' E 008°30'0 0.0
2017-May-24 21:57N 44°19' E 008°30'0 0.0
2017-May-24 21:27N 44°19' E 008°30'0 0.0
2017-May-24 20:57N 44°19' E 008°30'0 0.0
2017-May-24 20:21N 44°19' E 008°30'0 0.0
2017-May-24 19:57N 44°19' E 008°30'0 0.0
2017-May-24 19:24N 44°19' E 008°30'0 0.0
2017-May-24 18:57N 44°19' E 008°30'0 0.0
2017-May-24 18:27N 44°19' E 008°30'0 0.0
2017-May-24 17:57N 44°19' E 008°30'0 0.0
2017-May-24 17:27N 44°19' E 008°30'0 0.0
2017-May-24 16:57N 44°19' E 008°30'0 0.0
2017-May-24 16:27N 44°19' E 008°30'0 0.0
2017-May-24 15:57N 44°19' E 008°30'0 0.0
2017-May-24 15:30N 44°19' E 008°30'0 0.0
2017-May-24 14:57N 44°19' E 008°30'0 0.0
2017-May-24 14:27N 44°19' E 008°30'0 0.0
2017-May-24 13:27N 44°19' E 008°30'0 0.0
2017-May-24 12:57N 44°19' E 008°30'0 0.0
2017-May-24 12:30N 44°19' E 008°30'0 0.0
2017-May-24 11:57N 44°19' E 008°30'0 0.0
2017-May-24 11:27N 44°19' E 008°30'0 0.0
2017-May-24 10:57N 44°19' E 008°30'0 0.0
2017-May-24 10:27N 44°19' E 008°30'0 0.0
2017-May-24 09:57N 44°19' E 008°30'0 0.0
2017-May-24 09:30N 44°19' E 008°30'0 0.0
2017-May-24 08:57N 44°19' E 008°30'0 0.0
2017-May-24 08:27N 44°19' E 008°30'0 0.0
2017-May-24 08:00N 44°19' E 008°30'1 2.3
2017-May-24 07:30N 44°19' E 008°31'3 6.7
2017-May-24 07:00N 44°16' E 008°34'5 9.8
2017-May-24 06:30N 44°12' E 008°38'510.6
2017-May-24 06:00N 44°07' E 008°42'510.2
2017-May-24 05:30N 44°03' E 008°45'510.3
2017-May-24 05:00N 43°59' E 008°49'510.5
2017-May-24 04:30N 43°54' E 008°53'510.5
2017-May-24 04:00N 43°50' E 008°57'510.5
2017-May-24 03:30N 43°45' E 009°01'510.3
2017-May-24 03:00N 43°41' E 009°05'510.5
2017-May-24 02:30N 43°37' E 009°09'510.6
2017-May-24 02:00N 43°32' E 009°13'510.7
2017-May-24 01:30N 43°28' E 009°17'510.7
2017-May-24 01:00N 43°23' E 009°21'510.4
2017-May-24 00:30N 43°19' E 009°25'510.2
2017-May-24 00:00N 43°15' E 009°29'510.0
2017-May-23 23:30N 43°10' E 009°32'510.2
2017-May-23 23:00N 43°06' E 009°36'510.2
2017-May-23 22:30N 43°01' E 009°39'710.3
2017-May-23 21:47N 42°54' E 009°42'510.5
2017-May-23 21:17N 42°49' E 009°44'310.8
2017-May-23 20:58N 42°46' E 009°46'2110.3
2017-May-23 18:56N 42°26' E 009°55'410.1
2017-May-23 18:30N 42°22' E 009°57'9 9.9
2017-May-23 17:37N 42°15' E 010°05'110.1
2017-May-23 17:30N 42°15' E 010°06'610.2
2017-May-23 16:56N 42°11' E 010°12'10910.2
2017-May-23 06:17N 41°09' E 012°11'410.3
2017-May-23 05:53N 41°06' E 012°16'510.1
2017-May-23 05:23N 41°03' E 012°21'410.3
2017-May-23 05:00N 41°01' E 012°25'710.3
2017-May-23 04:18N 40°57' E 012°33'1810.3
2017-May-23 02:32N 40°47' E 012°54'210.4
2017-May-23 02:23N 40°47' E 012°56'510.3
2017-May-23 01:52N 40°45' E 013°03'1010.2
2017-May-23 00:53N 40°43' E 013°15'410.2
2017-May-23 00:29N 40°42' E 013°21'610.1
2017-May-22 23:56N 40°40' E 013°28'5 9.9
2017-May-22 23:26N 40°38' E 013°34'5 9.9
2017-May-22 22:57N 40°37' E 013°40'610.0
2017-May-22 22:23N 40°35' E 013°47'410.2
2017-May-22 21:57N 40°34' E 013°53'6 9.9
2017-May-22 21:19N 40°32' E 014°00'410.0
2017-May-22 20:57N 40°32' E 014°05'97 3.4
2017-May-21 16:50N 39°60' E 012°05'12 8.9
2017-May-21 15:28N 40°01' E 011°50'4 8.8
2017-May-21 14:59N 40°01' E 011°44'9 8.7
2017-May-21 13:57N 40°02' E 011°32'4 8.6
2017-May-21 13:29N 40°02' E 011°27'4 8.6
2017-May-21 12:59N 40°02' E 011°22'4 8.6
2017-May-21 12:30N 40°03' E 011°16'5 8.5
2017-May-21 11:58N 40°03' E 011°10'4 8.5
2017-May-21 11:27N 40°03' E 011°04'25 9.0
2017-May-21 08:42N 40°04' E 010°32'2 9.9
2017-May-21 08:30N 40°05' E 010°30'610.1
2017-May-21 07:57N 40°05' E 010°22'510.0
2017-May-21 07:30N 40°05' E 010°16'5 9.9
2017-May-21 07:00N 40°05' E 010°10'5 9.7
2017-May-21 06:29N 40°05' E 010°03'4 8.5
2017-May-21 06:00N 40°05' E 009°58'6 9.3
2017-May-21 05:21N 39°59' E 009°57'6 9.7
2017-May-21 04:43N 39°53' E 009°56'8 9.6
2017-May-21 03:55N 39°45' E 009°55'4 9.6
2017-May-21 03:30N 39°41' E 009°54'5 9.7
2017-May-21 03:00N 39°36' E 009°53'5 9.6
2017-May-21 02:30N 39°31' E 009°53'5 9.4
2017-May-21 01:58N 39°26' E 009°52'4 9.1
2017-May-21 01:29N 39°22' E 009°50'4 9.0
2017-May-21 00:59N 39°18' E 009°49'4 8.4
2017-May-21 00:30N 39°14' E 009°47'21 8.1
2017-May-20 21:57N 38°59' E 009°29'4 8.3
2017-May-20 21:30N 38°57' E 009°25'5 8.2
2017-May-20 20:53N 38°55' E 009°19'4 8.5
2017-May-20 20:25N 38°53' E 009°14'4 8.7
2017-May-20 19:55N 38°52' E 009°09'10 8.9
2017-May-20 18:47N 38°49' E 008°57'3 8.9
2017-May-20 18:29N 38°48' E 008°53'5 9.2
2017-May-20 17:58N 38°48' E 008°47'4 9.4
2017-May-20 17:30N 38°48' E 008°42'5 9.5
2017-May-20 16:59N 38°48' E 008°36'5 9.3
2017-May-20 16:29N 38°48' E 008°30'4 9.2
2017-May-20 16:00N 38°49' E 008°24'5 9.4
2017-May-20 15:29N 38°49' E 008°18'5 9.4
2017-May-20 15:00N 38°49' E 008°12'5 9.2
2017-May-20 14:30N 38°50' E 008°06'9 9.2
2017-May-20 13:31N 38°50' E 007°54'5 9.0
2017-May-20 13:00N 38°50' E 007°48'5 9.0
2017-May-20 12:30N 38°50' E 007°43'4 8.7
2017-May-20 11:59N 38°50' E 007°37'4 8.6
2017-May-20 11:30N 38°51' E 007°31'4 8.7
2017-May-20 11:00N 38°51' E 007°26'184 9.5
2017-May-19 15:30N 39°02' E 003°29'  

Dump ship's entire track history